Terminal Aerodrome Forecast
Issued by NWS State College, PA

Home | Current Version | Previous Version | Text Only | Print | Product List | Glossary On
Versions: 1 2 3 4 5 6 7 8 9 10 11 12 13 14 15 16 17 18 19 20 21 22 23 24 25 26
000
FTUS41 KCTP 311743
TAFIPT
TAF
KIPT 311743Z 3118/0118 00000KT P6SM OVC060
     FM010000 07003KT P6SM OVC045
     FM010500 03004KT P6SM OVC040
     FM011000 36005KT P6SM -RA OVC030=

USA.gov is the U.S. government's official web portal to all federal, state and local government web resources and services.